createdAt,value
2019-03-19T00:02:07.895Z,3.17
2019-03-19T00:04:41.308Z,3.18
2019-03-19T00:07:13.755Z,3.19
2019-03-19T00:09:46.119Z,3.18
2019-03-19T00:12:18.585Z,3.18
2019-03-19T00:14:50.928Z,3.18
2019-03-19T00:17:23.665Z,3.11
2019-03-19T00:19:56.714Z,3.08
2019-03-19T00:22:29.145Z,3.03
2019-03-19T00:28:22.484Z,2.60
2019-03-19T00:34:20.275Z,2.60
2019-03-19T00:36:52.805Z,2.52
2019-03-19T00:39:30.845Z,2.44
2019-03-19T00:42:15.717Z,2.29
2019-03-19T00:44:56.930Z,2.19
2019-03-19T00:48:28.827Z,2.17
2019-03-19T01:03:58.026Z,1.91
2019-03-19T01:06:30.593Z,1.90
2019-03-19T01:09:04.143Z,1.89
2019-03-19T01:11:36.843Z,1.91
2019-03-19T01:14:09.605Z,1.90
2019-03-19T01:16:42.099Z,1.86
2019-03-19T01:19:14.834Z,1.79
2019-03-19T01:21:49.424Z,1.78
2019-03-19T01:24:22.044Z,1.78
2019-03-19T01:26:54.798Z,1.75
2019-03-19T01:29:27.296Z,1.85
2019-03-19T01:31:59.663Z,1.95
2019-03-19T01:34:32.085Z,2.03
2019-03-19T01:37:04.649Z,2.10
2019-03-19T01:39:37.015Z,2.16
2019-03-19T01:42:09.434Z,2.20
2019-03-19T01:44:42.018Z,2.16
2019-03-19T01:47:14.935Z,2.13
2019-03-19T01:49:48.406Z,2.20
2019-03-19T01:52:20.747Z,2.25
2019-03-19T01:54:53.268Z,2.33
2019-03-19T01:57:25.675Z,2.36
2019-03-19T01:59:58.085Z,2.39
2019-03-19T02:02:30.886Z,2.37
2019-03-19T02:05:04.091Z,2.32
2019-03-19T02:07:37.125Z,2.34
2019-03-19T02:10:09.936Z,2.29
2019-03-19T02:12:42.404Z,2.29
2019-03-19T02:15:15.085Z,2.29
2019-03-19T02:17:48.656Z,2.32
2019-03-19T02:20:21.136Z,2.34
2019-03-19T02:22:54.375Z,2.35
2019-03-19T02:25:26.875Z,2.38
2019-03-19T02:27:59.605Z,2.38
2019-03-19T02:30:32.086Z,2.37
2019-03-19T02:33:04.549Z,2.33
2019-03-19T02:35:36.782Z,2.30
2019-03-19T02:38:09.385Z,2.25
2019-03-19T02:40:41.957Z,2.23
2019-03-19T02:43:14.878Z,2.21
2019-03-19T02:45:47.286Z,2.20
2019-03-19T02:48:19.838Z,2.18
2019-03-19T02:50:52.235Z,2.13
2019-03-19T02:53:24.732Z,2.08
2019-03-19T02:55:57.186Z,2.04
2019-03-19T02:58:29.761Z,1.99
2019-03-19T03:01:02.357Z,1.92
2019-03-19T03:03:34.871Z,1.82
2019-03-19T03:06:07.455Z,1.72
2019-03-19T03:08:39.920Z,1.64
2019-03-19T03:11:12.555Z,1.56
2019-03-19T03:13:45.205Z,1.53
2019-03-19T03:16:17.806Z,1.46
2019-03-19T03:18:50.371Z,1.42
2019-03-19T03:21:23.395Z,1.39
2019-03-19T03:23:55.887Z,1.35
2019-03-19T03:26:28.385Z,1.31
2019-03-19T03:29:00.907Z,1.25
2019-03-19T03:31:33.458Z,1.19
2019-03-19T03:34:05.913Z,1.13
2019-03-19T03:36:38.417Z,1.09
2019-03-19T03:39:11.091Z,1.05
2019-03-19T03:41:43.560Z,1.08
2019-03-19T03:44:15.986Z,1.08
2019-03-19T03:46:49.218Z,1.10
2019-03-19T03:49:22.221Z,1.12
2019-03-19T03:51:55.125Z,1.15
2019-03-19T03:54:27.657Z,1.17
2019-03-19T03:57:02.590Z,1.26
2019-03-19T03:59:34.505Z,1.36
2019-03-19T04:02:07.219Z,1.48
2019-03-19T04:04:41.464Z,1.57
2019-03-19T04:07:14.155Z,1.64
2019-03-19T04:09:46.508Z,1.69
2019-03-19T04:12:19.181Z,1.73
2019-03-19T04:14:51.616Z,1.74
2019-03-19T04:17:23.935Z,1.73
2019-03-19T04:19:57.180Z,1.71
2019-03-19T04:22:29.571Z,1.70
2019-03-19T04:25:02.073Z,1.70
2019-03-19T04:27:34.529Z,1.70
2019-03-19T04:30:08.407Z,1.69
2019-03-19T04:35:19.306Z,1.68
2019-03-19T04:37:51.915Z,1.65
2019-03-19T04:40:25.027Z,1.64
2019-03-19T04:42:57.536Z,1.60
2019-03-19T04:45:30.104Z,1.59
2019-03-19T04:48:03.734Z,1.57
2019-03-19T04:50:36.085Z,1.57
2019-03-19T04:53:08.605Z,1.51
2019-03-19T04:55:41.028Z,1.49
2019-03-19T04:58:13.505Z,1.47
2019-03-19T05:00:46.055Z,1.48
2019-03-19T05:03:18.478Z,1.50
2019-03-19T05:05:51.046Z,1.52
2019-03-19T05:08:23.445Z,1.55
2019-03-19T05:10:55.895Z,1.56
2019-03-19T05:13:28.395Z,1.60
2019-03-19T05:16:00.795Z,1.65
2019-03-19T05:18:33.916Z,1.66
2019-03-19T05:21:05.194Z,1.72
2019-03-19T05:23:37.357Z,1.77
2019-03-19T05:26:09.925Z,1.84
2019-03-19T05:28:42.455Z,1.91
2019-03-19T05:31:15.563Z,1.94
2019-03-19T05:33:48.155Z,1.99
2019-03-19T05:36:21.287Z,2.03
2019-03-19T05:38:53.839Z,2.07
2019-03-19T05:41:26.855Z,2.11
2019-03-19T05:43:59.193Z,2.15
2019-03-19T05:46:32.984Z,2.18
2019-03-19T05:49:05.988Z,2.23
2019-03-19T05:51:39.050Z,2.28
2019-03-19T05:54:11.555Z,2.31
2019-03-19T05:56:44.984Z,2.37
2019-03-19T05:59:17.488Z,2.44
2019-03-19T06:01:49.965Z,2.53
2019-03-19T06:04:22.255Z,2.63
2019-03-19T06:06:54.605Z,2.80
2019-03-19T06:09:27.077Z,2.94
2019-03-19T06:11:59.917Z,3.05
2019-03-19T06:14:32.965Z,3.18
2019-03-19T06:17:05.545Z,3.29
2019-03-19T06:19:38.144Z,3.36
2019-03-19T06:22:27.005Z,3.46
2019-03-19T06:24:59.435Z,3.55
2019-03-19T06:31:57.055Z,3.78
2019-03-19T06:38:27.314Z,4.09
2019-03-19T07:13:53.005Z,5.43
2019-03-19T07:20:27.990Z,5.95
2019-03-19T07:23:04.895Z,6.17
2019-03-19T07:25:40.685Z,6.36
2019-03-19T07:28:22.735Z,6.40
2019-03-19T07:30:58.276Z,6.58
2019-03-19T07:33:30.805Z,6.85
2019-03-19T07:36:03.300Z,6.83
2019-03-19T07:38:35.906Z,7.05
2019-03-19T07:41:11.365Z,7.00
2019-03-19T07:43:51.967Z,7.04
2019-03-19T07:46:27.256Z,6.91
2019-03-19T07:49:01.334Z,6.84
2019-03-19T07:51:34.635Z,7.09
2019-03-19T07:54:07.305Z,7.36
2019-03-19T07:56:40.007Z,7.57
2019-03-19T07:59:18.227Z,7.73
2019-03-19T08:01:52.658Z,7.64
2019-03-19T08:04:32.183Z,8.07
2019-03-19T08:07:05.196Z,8.26
2019-03-19T08:10:05.956Z,8.70
2019-03-19T08:12:42.783Z,9.01
2019-03-19T08:15:21.165Z,8.83
2019-03-19T08:17:53.637Z,8.98
2019-03-19T08:20:37.755Z,8.95
2019-03-19T08:23:11.625Z,8.87
2019-03-19T08:25:44.245Z,9.30
2019-03-19T08:28:19.234Z,9.13
2019-03-19T08:30:52.285Z,8.18
2019-03-19T08:33:30.805Z,7.91
2019-03-19T08:36:09.374Z,7.61
2019-03-19T08:38:37.455Z,7.48
2019-03-19T08:41:10.445Z,7.57
2019-03-19T08:43:46.255Z,7.90
2019-03-19T08:46:21.524Z,8.12
2019-03-19T08:48:56.904Z,8.65
2019-03-19T08:51:31.867Z,9.22
2019-03-19T08:54:04.695Z,9.64
2019-03-19T08:56:37.546Z,9.86
2019-03-19T08:59:10.685Z,9.60
2019-03-19T09:01:47.728Z,9.04
2019-03-19T09:04:20.355Z,8.29
2019-03-19T09:06:52.855Z,7.70
2019-03-19T09:09:25.925Z,7.38
2019-03-19T09:11:58.365Z,7.30
2019-03-19T09:14:31.555Z,7.17
2019-03-19T09:17:04.501Z,7.17
2019-03-19T09:19:36.725Z,7.34
2019-03-19T09:22:15.338Z,7.62
2019-03-19T09:24:47.837Z,8.42
2019-03-19T09:27:20.415Z,8.60
2019-03-19T09:29:52.858Z,8.62
2019-03-19T09:32:25.285Z,8.46
2019-03-19T09:34:58.165Z,8.24
2019-03-19T09:37:30.695Z,8.36
2019-03-19T09:40:03.421Z,7.89
2019-03-19T09:42:36.414Z,7.91
2019-03-19T09:45:09.877Z,7.82
2019-03-19T09:47:42.495Z,7.52
2019-03-19T09:50:16.365Z,7.40
2019-03-19T09:52:52.205Z,7.51
2019-03-19T09:55:28.004Z,7.46
2019-03-19T09:58:00.635Z,7.49
2019-03-19T10:00:33.065Z,7.44
2019-03-19T10:03:05.462Z,7.40
2019-03-19T10:05:37.876Z,7.48
2019-03-19T10:08:10.615Z,7.46
2019-03-19T10:10:46.715Z,7.53
2019-03-19T10:13:19.246Z,7.51
2019-03-19T10:15:51.733Z,7.47
2019-03-19T10:19:01.145Z,7.44
2019-03-19T10:22:10.084Z,7.44
2019-03-19T10:24:51.015Z,7.40
2019-03-19T10:27:31.775Z,7.37
2019-03-19T10:30:07.905Z,7.17
2019-03-19T10:32:43.245Z,7.25
2019-03-19T10:46:40.049Z,8.06
2019-03-19T10:52:56.250Z,8.04
2019-03-19T10:55:29.161Z,7.87
2019-03-19T10:58:11.024Z,7.71
2019-03-19T11:00:37.270Z,7.54
2019-03-19T11:03:11.826Z,7.37
2019-03-19T11:05:45.020Z,7.27
2019-03-19T11:08:17.800Z,7.16
2019-03-19T11:10:52.371Z,7.09
2019-03-19T11:13:26.288Z,7.04
2019-03-19T11:16:00.360Z,6.98
2019-03-19T11:18:33.356Z,7.01
2019-03-19T11:21:06.110Z,7.06
2019-03-19T11:23:39.000Z,7.14
2019-03-19T11:26:11.949Z,7.20
2019-03-19T11:28:50.502Z,7.33
2019-03-19T11:31:24.135Z,7.46
2019-03-19T11:33:56.893Z,7.55
2019-03-19T11:36:30.193Z,7.60
2019-03-19T11:39:04.650Z,7.77
2019-03-19T11:41:37.480Z,7.90
2019-03-19T11:44:10.286Z,7.83
2019-03-19T11:46:43.445Z,7.90
2019-03-19T11:49:16.050Z,8.00
2019-03-19T11:51:48.780Z,8.11
2019-03-19T11:54:22.126Z,8.25
2019-03-19T11:57:08.939Z,8.33
2019-03-19T11:59:41.716Z,8.60
2019-03-19T12:02:25.389Z,8.74
2019-03-19T12:04:49.797Z,9.46
2019-03-19T12:07:23.396Z,10.12
2019-03-19T12:09:56.368Z,9.86
2019-03-19T12:12:29.016Z,9.59
2019-03-19T12:15:05.541Z,9.36
2019-03-19T12:17:38.658Z,9.29
2019-03-19T12:20:12.078Z,9.07
2019-03-19T12:22:53.492Z,8.85
2019-03-19T12:25:31.367Z,8.81
2019-03-19T12:28:04.310Z,8.59
2019-03-19T12:30:37.018Z,8.44
2019-03-19T12:33:10.192Z,8.16
2019-03-19T12:35:43.054Z,8.15
2019-03-19T12:38:16.998Z,8.07
2019-03-19T12:40:49.806Z,8.06
2019-03-19T12:43:22.694Z,8.01
2019-03-19T12:45:55.463Z,8.06
2019-03-19T12:48:28.668Z,8.06
2019-03-19T12:51:01.450Z,8.08
2019-03-19T12:53:34.018Z,8.15
2019-03-19T12:56:06.951Z,8.24
2019-03-19T12:58:39.941Z,8.21
2019-03-19T13:01:12.947Z,8.14
2019-03-19T13:03:46.339Z,8.11
2019-03-19T13:06:19.198Z,8.10
2019-03-19T13:08:52.668Z,8.07
2019-03-19T13:11:27.360Z,8.05
2019-03-19T13:14:00.341Z,8.04
2019-03-19T13:16:33.393Z,8.10
2019-03-19T13:19:06.581Z,8.17
2019-03-19T13:21:39.476Z,8.13
2019-03-19T13:24:13.976Z,8.21
2019-03-19T13:26:46.827Z,8.27
2019-03-19T13:29:19.756Z,8.33
2019-03-19T13:31:56.246Z,8.35
2019-03-19T13:34:29.166Z,8.34
2019-03-19T13:37:04.705Z,8.30
2019-03-19T13:39:39.362Z,8.25
2019-03-19T13:42:21.726Z,8.13
2019-03-19T13:44:56.239Z,8.09
2019-03-19T13:47:38.177Z,8.05
2019-03-19T13:50:12.438Z,8.00
2019-03-19T13:52:45.178Z,8.02
2019-03-19T13:55:18.368Z,8.02
2019-03-19T13:57:51.248Z,8.03
2019-03-19T14:00:24.541Z,8.04
2019-03-19T14:02:59.358Z,8.02
2019-03-19T14:05:32.986Z,8.02
2019-03-19T14:08:06.900Z,8.03
2019-03-19T14:15:01.481Z,8.10
2019-03-19T14:18:12.256Z,8.11
2019-03-19T14:20:41.777Z,7.86
2019-03-19T14:40:37.027Z,7.47
2019-03-19T14:40:39.707Z,7.59
2019-03-19T14:43:24.948Z,7.28
2019-03-19T14:46:18.408Z,7.35
2019-03-19T14:52:43.782Z,7.34
2019-03-19T14:56:03.220Z,7.31
2019-03-19T14:58:46.237Z,7.28
2019-03-19T15:05:34.299Z,7.31
2019-03-19T15:09:07.008Z,7.07
2019-03-19T15:12:15.296Z,7.17
2019-03-19T15:14:50.538Z,7.11
2019-03-19T15:17:50.638Z,7.05
2019-03-19T15:20:19.108Z,6.97
2019-03-19T15:23:19.279Z,7.00
2019-03-19T15:25:54.931Z,7.00
2019-03-19T15:28:47.470Z,7.01
2019-03-19T15:31:58.448Z,6.98
2019-03-19T15:34:30.968Z,6.96
2019-03-19T15:37:03.788Z,6.95
2019-03-19T15:39:49.697Z,6.97
2019-03-19T15:42:39.200Z,7.01
2019-03-19T15:45:36.076Z,6.99
2019-03-19T15:48:06.815Z,6.97
2019-03-19T15:50:50.169Z,6.92
2019-03-19T15:53:25.688Z,6.86
2019-03-19T15:56:18.137Z,6.85
2019-03-19T15:59:15.280Z,6.81
2019-03-19T16:02:09.657Z,6.79
2019-03-19T16:04:56.898Z,6.76
2019-03-19T16:07:35.299Z,6.74
2019-03-19T16:10:37.157Z,6.73
2019-03-19T16:13:13.838Z,6.70
2019-03-19T16:15:49.038Z,6.69
2019-03-19T16:18:27.321Z,6.69
2019-03-19T16:20:59.928Z,6.67
2019-03-19T16:23:39.567Z,6.65
2019-03-19T16:26:20.918Z,6.61
2019-03-19T16:28:56.083Z,6.53
2019-03-19T16:31:28.678Z,6.49
2019-03-19T16:34:03.668Z,6.47
2019-03-19T16:40:33.367Z,6.42
2019-03-19T16:43:34.831Z,6.38
2019-03-19T16:46:25.923Z,6.35
2019-03-19T16:53:14.838Z,6.32
2019-03-19T17:05:39.697Z,6.25
2019-03-19T17:08:14.962Z,6.21
2019-03-19T17:10:47.529Z,6.16
2019-03-19T17:13:21.060Z,6.14
2019-03-19T17:15:53.508Z,6.12
2019-03-19T17:18:26.048Z,6.08
2019-03-19T17:20:58.548Z,6.06
2019-03-19T17:23:31.268Z,6.00
2019-03-19T17:26:03.829Z,5.96
2019-03-19T17:28:36.433Z,5.91
2019-03-19T17:31:08.882Z,5.89
2019-03-19T17:33:41.478Z,5.85
2019-03-19T17:36:14.278Z,5.83
2019-03-19T17:38:46.739Z,5.82
2019-03-19T17:41:19.148Z,5.81
2019-03-19T17:43:51.589Z,5.79
2019-03-19T17:46:24.329Z,5.79
2019-03-19T17:48:56.748Z,5.77
2019-03-19T17:51:29.078Z,5.73
2019-03-19T17:54:01.659Z,5.71
2019-03-19T17:56:53.668Z,5.66
2019-03-19T17:59:26.038Z,5.64
2019-03-19T18:01:58.638Z,5.64
2019-03-19T18:04:31.188Z,5.63
2019-03-19T18:07:03.639Z,5.63
2019-03-19T18:09:36.208Z,5.61
2019-03-19T18:12:08.728Z,5.61
2019-03-19T18:14:41.178Z,5.59
2019-03-19T18:17:13.648Z,5.57
2019-03-19T18:19:46.086Z,5.56
2019-03-19T18:22:18.548Z,5.49
2019-03-19T18:24:51.028Z,5.40
2019-03-19T18:27:23.586Z,5.34
2019-03-19T18:29:56.568Z,5.35
2019-03-19T18:32:35.338Z,5.36
2019-03-19T18:35:09.522Z,5.38
2019-03-19T18:37:46.787Z,5.38
2019-03-19T18:40:21.208Z,5.37
2019-03-19T18:42:56.098Z,5.33
2019-03-19T18:45:28.680Z,5.30
2019-03-19T18:48:02.428Z,5.26
2019-03-19T18:50:41.049Z,5.20
2019-03-19T18:53:18.397Z,5.17
2019-03-19T18:56:19.681Z,5.17
2019-03-19T18:59:02.618Z,5.17
2019-03-19T19:03:57.658Z,5.16
2019-03-19T19:06:30.078Z,5.13
2019-03-19T19:09:04.411Z,5.11
2019-03-19T19:11:37.248Z,5.10
2019-03-19T19:14:11.348Z,5.10
2019-03-19T19:16:48.088Z,5.11
2019-03-19T19:19:21.048Z,5.09
2019-03-19T19:21:54.336Z,5.05
2019-03-19T19:24:27.199Z,5.03
2019-03-19T19:27:02.987Z,5.01
2019-03-19T19:29:35.718Z,4.98
2019-03-19T19:32:08.438Z,4.98
2019-03-19T19:34:46.041Z,4.97
2019-03-19T19:37:32.641Z,4.96
2019-03-19T19:40:34.758Z,4.95
2019-03-19T19:43:18.918Z,4.95
2019-03-19T19:45:54.576Z,4.93
2019-03-19T19:48:27.480Z,4.88
2019-03-19T19:51:00.189Z,4.83
2019-03-19T19:53:37.748Z,4.81
2019-03-19T20:03:59.368Z,4.66
2019-03-19T20:07:14.638Z,4.51
2019-03-19T20:10:58.370Z,4.43
2019-03-19T20:14:02.887Z,4.31
2019-03-19T20:16:35.710Z,4.19
2019-03-19T20:19:12.374Z,4.11
2019-03-19T20:21:46.397Z,4.06
2019-03-19T20:24:24.762Z,3.99
2019-03-19T20:27:00.548Z,3.93
2019-03-19T20:29:56.158Z,3.86
2019-03-19T20:47:49.598Z,3.05
2019-03-19T20:50:29.379Z,2.91
2019-03-19T20:53:07.440Z,2.94
2019-03-19T20:55:41.028Z,2.92
2019-03-19T21:02:19.909Z,2.79
2019-03-19T21:04:56.968Z,2.64
2019-03-19T21:18:16.807Z,2.61
2019-03-19T21:20:49.379Z,2.56
2019-03-19T21:23:21.813Z,2.56
2019-03-19T21:25:57.798Z,2.54
2019-03-19T21:28:30.299Z,2.53
2019-03-19T21:31:05.631Z,2.50
2019-03-19T21:33:51.283Z,2.52
2019-03-19T21:36:52.198Z,2.47
2019-03-19T21:43:10.848Z,2.38
2019-03-19T21:45:39.547Z,2.23
2019-03-19T21:48:12.487Z,2.13
2019-03-19T21:50:49.687Z,2.05
2019-03-19T21:53:26.468Z,2.00
2019-03-19T21:55:59.170Z,1.95
2019-03-19T21:58:36.610Z,1.86
2019-03-19T22:01:46.068Z,1.77
2019-03-19T22:04:19.582Z,1.66
2019-03-19T22:06:57.154Z,1.52
2019-03-19T22:09:33.516Z,1.47
2019-03-19T22:12:22.479Z,1.41
2019-03-19T22:14:55.078Z,1.38
2019-03-19T22:17:27.718Z,1.30
2019-03-19T22:20:02.678Z,1.25
2019-03-19T22:22:35.669Z,1.18
2019-03-19T22:25:08.922Z,1.17
2019-03-19T22:27:41.401Z,1.15
2019-03-19T22:30:18.318Z,1.15
2019-03-19T22:32:51.227Z,1.13
2019-03-19T22:35:30.548Z,1.06
2019-03-19T22:38:03.898Z,1.04
2019-03-19T22:40:45.318Z,0.95
2019-03-19T22:43:22.960Z,0.92
2019-03-19T22:45:52.111Z,0.86
2019-03-19T22:48:24.648Z,0.82
2019-03-19T22:51:01.197Z,0.75
2019-03-19T22:53:40.957Z,0.71
2019-03-19T22:56:08.228Z,0.71
2019-03-19T22:58:41.081Z,0.74
2019-03-19T23:01:16.614Z,0.78
2019-03-19T23:03:49.568Z,0.85
2019-03-19T23:06:22.009Z,0.84
2019-03-19T23:08:54.949Z,0.85
2019-03-19T23:11:29.077Z,0.87
2019-03-19T23:17:41.075Z,0.87
2019-03-19T23:20:24.079Z,0.82
2019-03-19T23:22:56.697Z,0.80
2019-03-19T23:25:29.352Z,0.77
2019-03-19T23:28:02.716Z,0.68
2019-03-19T23:31:26.278Z,0.55
2019-03-19T23:34:03.149Z,0.44
2019-03-19T23:36:51.168Z,0.28
2019-03-19T23:39:23.919Z,0.18
2019-03-19T23:41:56.532Z,0.08
2019-03-19T23:44:29.436Z,0.03
2019-03-19T23:47:01.902Z,-0.04
2019-03-19T23:49:37.197Z,-0.09
2019-03-19T23:52:08.988Z,-0.12
2019-03-19T23:54:45.318Z,-0.13
2019-03-19T23:57:24.709Z,-0.17
2019-03-19T23:59:57.343Z,-0.16
